Terminal Aerodrome Forecast
Issued by NWS

Home | Current Version | Previous Version | Graphics & Text | Print | Product List | Glossary On
Versions: 1 2 3 4 5 6 7 8 9 10 11 12 13 14 15 16 17 18 19 20 21 22 23 24 25 26 27 28 29 30
059
FTUS43 KBIS 251128
TAFMOT
TAF
KMOT 251128Z 2512/2612 29023G32KT P6SM -SHRA BKN025
     FM251500 29024G34KT P6SM SCT060
     FM260000 30015G22KT P6SM SKC
     FM260300 29010KT P6SM SKC=

USA.gov is the U.S. government's official web portal to all federal, state and local government web resources and services.